sensor_id;sensor_type;location;lat;lon;timestamp;P1;durP1;ratioP1;P2;durP2;ratioP2
31306;SDS011;17935;51.120;13.132;2023-02-15T07:33:13;12.80;;;7.53;;
31306;SDS011;17935;51.120;13.132;2023-02-15T07:35:55;12.25;;;8.05;;
31306;SDS011;17935;51.120;13.132;2023-02-15T07:38:22;27.25;;;11.40;;
31306;SDS011;17935;51.120;13.132;2023-02-15T07:40:49;29.00;;;11.50;;
31306;SDS011;17935;51.120;13.132;2023-02-15T07:43:15;14.25;;;8.18;;
31306;SDS011;17935;51.120;13.132;2023-02-15T07:45:41;11.50;;;7.90;;
31306;SDS011;17935;51.120;13.132;2023-02-15T07:48:07;21.92;;;8.80;;
31306;SDS011;17935;51.120;13.132;2023-02-15T07:50:33;18.55;;;8.18;;
31306;SDS011;17935;51.120;13.132;2023-02-15T07:53:03;12.45;;;9.07;;
31306;SDS011;17935;51.120;13.132;2023-02-15T07:55:29;24.33;;;10.10;;
31306;SDS011;17935;51.120;13.132;2023-02-15T07:57:54;12.88;;;8.73;;
31306;SDS011;17935;51.120;13.132;2023-02-15T08:00:21;18.08;;;9.18;;
31306;SDS011;17935;51.120;13.132;2023-02-15T08:02:53;34.55;;;12.35;;
31306;SDS011;17935;51.120;13.132;2023-02-15T08:05:38;11.63;;;7.35;;
31306;SDS011;17935;51.120;13.132;2023-02-15T08:08:05;12.90;;;8.70;;
31306;SDS011;17935;51.120;13.132;2023-02-15T08:10:31;17.17;;;9.48;;
31306;SDS011;17935;51.120;13.132;2023-02-15T08:13:15;41.50;;;13.68;;
31306;SDS011;17935;51.120;13.132;2023-02-15T08:15:47;13.23;;;10.00;;
31306;SDS011;17935;51.120;13.132;2023-02-15T08:18:13;14.63;;;9.32;;
31306;SDS011;17935;51.120;13.132;2023-02-15T08:20:39;14.60;;;9.55;;
31306;SDS011;17935;51.120;13.132;2023-02-15T08:23:05;9.57;;;7.68;;
31306;SDS011;17935;51.120;13.132;2023-02-15T08:25:31;12.35;;;8.20;;
31306;SDS011;17935;51.120;13.132;2023-02-15T08:27:57;10.70;;;8.25;;
31306;SDS011;17935;51.120;13.132;2023-02-15T08:30:23;18.15;;;9.02;;
31306;SDS011;17935;51.120;13.132;2023-02-15T08:32:49;11.38;;;7.85;;
31306;SDS011;17935;51.120;13.132;2023-02-15T08:35:15;14.25;;;8.05;;
31306;SDS011;17935;51.120;13.132;2023-02-15T08:37:41;11.32;;;7.90;;
31306;SDS011;17935;51.120;13.132;2023-02-15T08:40:07;10.07;;;7.47;;
31306;SDS011;17935;51.120;13.132;2023-02-15T08:42:33;12.32;;;6.93;;
31306;SDS011;17935;51.120;13.132;2023-02-15T08:44:59;10.15;;;7.15;;
31306;SDS011;17935;51.120;13.132;2023-02-15T08:47:25;11.95;;;8.32;;
31306;SDS011;17935;51.120;13.132;2023-02-15T08:49:51;17.08;;;10.77;;
31306;SDS011;17935;51.120;13.132;2023-02-15T08:52:17;18.38;;;10.50;;
31306;SDS011;17935;51.120;13.132;2023-02-15T08:54:43;18.85;;;10.27;;
31306;SDS011;17935;51.120;13.132;2023-02-15T08:57:09;16.15;;;8.73;;
31306;SDS011;17935;51.120;13.132;2023-02-15T08:59:35;10.15;;;8.23;;
31306;SDS011;17935;51.120;13.132;2023-02-15T09:02:01;10.50;;;7.88;;
31306;SDS011;17935;51.120;13.132;2023-02-15T09:04:28;8.57;;;7.07;;
31306;SDS011;17935;51.120;13.132;2023-02-15T09:06:54;8.10;;;6.18;;
31306;SDS011;17935;51.120;13.132;2023-02-15T09:09:20;7.28;;;5.70;;
31306;SDS011;17935;51.120;13.132;2023-02-15T09:11:47;7.68;;;5.65;;
31306;SDS011;17935;51.120;13.132;2023-02-15T09:14:15;6.53;;;5.60;;
31306;SDS011;17935;51.120;13.132;2023-02-15T09:16:42;10.35;;;5.78;;
31306;SDS011;17935;51.120;13.132;2023-02-15T09:19:13;7.10;;;5.35;;
31306;SDS011;17935;51.120;13.132;2023-02-15T09:21:39;6.22;;;5.53;;
31306;SDS011;17935;51.120;13.132;2023-02-15T09:24:10;8.23;;;4.90;;
31306;SDS011;17935;51.120;13.132;2023-02-15T09:26:37;8.32;;;4.93;;
31306;SDS011;17935;51.120;13.132;2023-02-15T09:29:05;24.55;;;8.60;;
31306;SDS011;17935;51.120;13.132;2023-02-15T09:31:32;10.55;;;5.82;;
31306;SDS011;17935;51.120;13.132;2023-02-15T09:33:59;9.30;;;6.00;;
31306;SDS011;17935;51.120;13.132;2023-02-15T09:36:32;14.52;;;6.00;;
31306;SDS011;17935;51.120;13.132;2023-02-15T09:41:28;14.55;;;6.25;;
31306;SDS011;17935;51.120;13.132;2023-02-15T09:46:34;19.05;;;9.23;;
31306;SDS011;17935;51.120;13.132;2023-02-15T09:49:07;11.73;;;6.38;;
31306;SDS011;17935;51.120;13.132;2023-02-15T09:51:38;13.52;;;6.47;;
31306;SDS011;17935;51.120;13.132;2023-02-15T09:54:15;18.92;;;7.22;;
31306;SDS011;17935;51.120;13.132;2023-02-15T09:56:55;15.20;;;7.63;;
31306;SDS011;17935;51.120;13.132;2023-02-15T10:02:02;15.23;;;8.13;;
31306;SDS011;17935;51.120;13.132;2023-02-15T10:04:38;14.35;;;6.72;;
31306;SDS011;17935;51.120;13.132;2023-02-15T10:10:03;9.55;;;6.05;;
31306;SDS011;17935;51.120;13.132;2023-02-15T10:12:53;15.63;;;7.45;;
31306;SDS011;17935;51.120;13.132;2023-02-15T10:15:27;8.05;;;6.15;;
31306;SDS011;17935;51.120;13.132;2023-02-15T10:25:51;8.00;;;7.00;;
31306;SDS011;17935;51.120;13.132;2023-02-15T10:28:23;10.70;;;6.90;;
31306;SDS011;17935;51.120;13.132;2023-02-15T10:30:53;10.65;;;6.95;;
31306;SDS011;17935;51.120;13.132;2023-02-15T10:33:38;11.90;;;6.93;;
31306;SDS011;17935;51.120;13.132;2023-02-15T10:38:42;11.95;;;6.07;;
31306;SDS011;17935;51.120;13.132;2023-02-15T10:41:15;10.10;;;7.30;;
31306;SDS011;17935;51.120;13.132;2023-02-15T10:51:34;11.07;;;7.35;;
31306;SDS011;17935;51.120;13.132;2023-02-15T10:54:14;10.10;;;6.25;;
31306;SDS011;17935;51.120;13.132;2023-02-15T10:56:49;10.68;;;6.10;;
31306;SDS011;17935;51.120;13.132;2023-02-15T10:59:28;9.50;;;6.33;;
31306;SDS011;17935;51.120;13.132;2023-02-15T11:02:13;39.42;;;8.18;;
31306;SDS011;17935;51.120;13.132;2023-02-15T11:05:02;12.38;;;6.18;;
31306;SDS011;17935;51.120;13.132;2023-02-15T11:07:41;17.63;;;6.40;;
31306;SDS011;17935;51.120;13.132;2023-02-15T11:10:22;7.20;;;5.47;;
31306;SDS011;17935;51.120;13.132;2023-02-15T11:12:50;9.05;;;4.78;;
31306;SDS011;17935;51.120;13.132;2023-02-15T11:15:19;6.15;;;4.15;;
31306;SDS011;17935;51.120;13.132;2023-02-15T11:17:49;9.70;;;3.50;;
31306;SDS011;17935;51.120;13.132;2023-02-15T11:20:24;9.07;;;3.83;;
31306;SDS011;17935;51.120;13.132;2023-02-15T11:22:51;7.00;;;3.42;;
31306;SDS011;17935;51.120;13.132;2023-02-15T11:25:19;5.78;;;3.55;;
31306;SDS011;17935;51.120;13.132;2023-02-15T11:27:48;8.18;;;3.35;;
31306;SDS011;17935;51.120;13.132;2023-02-15T11:30:18;7.05;;;3.40;;
31306;SDS011;17935;51.120;13.132;2023-02-15T11:32:45;7.05;;;3.05;;
31306;SDS011;17935;51.120;13.132;2023-02-15T11:40:24;6.38;;;2.92;;
31306;SDS011;17935;51.120;13.132;2023-02-15T11:42:51;3.88;;;3.17;;
31306;SDS011;17935;51.120;13.132;2023-02-15T11:45:21;5.78;;;3.05;;
31306;SDS011;17935;51.120;13.132;2023-02-15T11:47:48;10.13;;;4.00;;
31306;SDS011;17935;51.120;13.132;2023-02-15T11:50:15;6.38;;;3.60;;
31306;SDS011;17935;51.120;13.132;2023-02-15T11:52:43;4.18;;;3.13;;
31306;SDS011;17935;51.120;13.132;2023-02-15T11:55:12;8.55;;;3.38;;
31306;SDS011;17935;51.120;13.132;2023-02-15T11:57:41;7.63;;;3.43;;
31306;SDS011;17935;51.120;13.132;2023-02-15T12:00:14;5.95;;;3.42;;
31306;SDS011;17935;51.120;13.132;2023-02-15T12:02:44;5.78;;;3.28;;
31306;SDS011;17935;51.120;13.132;2023-02-15T12:05:12;9.70;;;3.67;;
31306;SDS011;17935;51.120;13.132;2023-02-15T12:07:46;5.72;;;3.47;;
31306;SDS011;17935;51.120;13.132;2023-02-15T12:12:41;4.67;;;3.37;;
31306;SDS011;17935;51.120;13.132;2023-02-15T12:15:08;5.10;;;3.60;;
31306;SDS011;17935;51.120;13.132;2023-02-15T12:17:35;5.03;;;3.78;;
31306;SDS011;17935;51.120;13.132;2023-02-15T12:20:06;6.28;;;3.42;;
31306;SDS011;17935;51.120;13.132;2023-02-15T12:22:34;5.87;;;3.17;;
31306;SDS011;17935;51.120;13.132;2023-02-15T12:25:02;5.05;;;3.30;;
31306;SDS011;17935;51.120;13.132;2023-02-15T12:27:30;6.38;;;3.08;;
31306;SDS011;17935;51.120;13.132;2023-02-15T12:29:58;5.85;;;3.40;;
31306;SDS011;17935;51.120;13.132;2023-02-15T12:32:27;6.22;;;3.30;;
31306;SDS011;17935;51.120;13.132;2023-02-15T12:34:59;5.85;;;3.20;;
31306;SDS011;17935;51.120;13.132;2023-02-15T12:37:27;7.50;;;3.45;;
31306;SDS011;17935;51.120;13.132;2023-02-15T12:39:58;4.90;;;2.88;;
31306;SDS011;17935;51.120;13.132;2023-02-15T12:42:24;3.20;;;2.90;;
31306;SDS011;17935;51.120;13.132;2023-02-15T12:44:58;6.07;;;2.80;;
31306;SDS011;17935;51.120;13.132;2023-02-15T12:47:24;6.70;;;3.25;;
31306;SDS011;17935;51.120;13.132;2023-02-15T12:50:04;4.45;;;3.25;;
31306;SDS011;17935;51.120;13.132;2023-02-15T12:52:30;51.40;;;5.00;;
31306;SDS011;17935;51.120;13.132;2023-02-15T12:55:09;4.57;;;3.10;;
31306;SDS011;17935;51.120;13.132;2023-02-15T12:57:35;4.40;;;2.60;;
31306;SDS011;17935;51.120;13.132;2023-02-15T13:00:05;4.05;;;2.80;;
31306;SDS011;17935;51.120;13.132;2023-02-15T13:05:18;3.97;;;2.55;;
31306;SDS011;17935;51.120;13.132;2023-02-15T13:07:47;3.97;;;2.17;;
31306;SDS011;17935;51.120;13.132;2023-02-15T13:10:21;2.20;;;1.88;;
31306;SDS011;17935;51.120;13.132;2023-02-15T13:12:49;4.25;;;1.90;;
31306;SDS011;17935;51.120;13.132;2023-02-15T13:15:26;2.35;;;1.88;;
31306;SDS011;17935;51.120;13.132;2023-02-15T13:17:52;2.78;;;1.70;;
31306;SDS011;17935;51.120;13.132;2023-02-15T13:20:20;2.60;;;1.80;;
31306;SDS011;17935;51.120;13.132;2023-02-15T13:22:57;6.00;;;2.30;;
31306;SDS011;17935;51.120;13.132;2023-02-15T13:25:24;4.03;;;1.77;;
31306;SDS011;17935;51.120;13.132;2023-02-15T13:28:03;4.38;;;2.10;;
31306;SDS011;17935;51.120;13.132;2023-02-15T13:30:38;3.17;;;1.80;;
31306;SDS011;17935;51.120;13.132;2023-02-15T13:38:15;4.78;;;2.30;;
31306;SDS011;17935;51.120;13.132;2023-02-15T13:43:15;2.80;;;1.70;;
31306;SDS011;17935;51.120;13.132;2023-02-15T13:48:27;5.28;;;1.70;;
31306;SDS011;17935;51.120;13.132;2023-02-15T13:51:09;3.10;;;1.80;;
31306;SDS011;17935;51.120;13.132;2023-02-15T13:56:33;1.70;;;1.50;;
31306;SDS011;17935;51.120;13.132;2023-02-15T14:09:33;3.40;;;1.70;;
31306;SDS011;17935;51.120;13.132;2023-02-15T14:19:57;3.40;;;1.70;;
31306;SDS011;17935;51.120;13.132;2023-02-15T14:28:05;5.05;;;1.70;;
31306;SDS011;17935;51.120;13.132;2023-02-15T14:30:37;4.87;;;2.03;;
31306;SDS011;17935;51.120;13.132;2023-02-15T14:33:07;17.80;;;2.83;;
31306;SDS011;17935;51.120;13.132;2023-02-15T14:35:33;4.80;;;2.33;;
31306;SDS011;17935;51.120;13.132;2023-02-15T14:38:03;5.82;;;2.08;;
31306;SDS011;17935;51.120;13.132;2023-02-15T14:40:37;5.35;;;2.20;;
31306;SDS011;17935;51.120;13.132;2023-02-15T14:46:14;3.53;;;2.03;;
31306;SDS011;17935;51.120;13.132;2023-02-15T14:48:45;3.70;;;1.98;;
31306;SDS011;17935;51.120;13.132;2023-02-15T14:51:37;7.18;;;2.30;;
31306;SDS011;17935;51.120;13.132;2023-02-15T14:53:57;4.40;;;2.00;;
31306;SDS011;17935;51.120;13.132;2023-02-15T14:56:23;5.68;;;2.00;;
31306;SDS011;17935;51.120;13.132;2023-02-15T15:01:27;15.50;;;2.55;;
31306;SDS011;17935;51.120;13.132;2023-02-15T15:03:54;4.90;;;2.33;;
31306;SDS011;17935;51.120;13.132;2023-02-15T15:06:28;3.75;;;2.00;;
31306;SDS011;17935;51.120;13.132;2023-02-15T15:08:55;4.93;;;2.40;;
31306;SDS011;17935;51.120;13.132;2023-02-15T15:13:54;16.17;;;2.63;;
31306;SDS011;17935;51.120;13.132;2023-02-15T15:19:03;3.90;;;2.50;;
31306;SDS011;17935;51.120;13.132;2023-02-15T15:29:41;19.17;;;3.22;;
31306;SDS011;17935;51.120;13.132;2023-02-15T15:32:08;5.70;;;2.63;;
31306;SDS011;17935;51.120;13.132;2023-02-15T15:34:50;4.85;;;2.78;;
31306;SDS011;17935;51.120;13.132;2023-02-15T15:37:31;4.03;;;2.50;;
31306;SDS011;17935;51.120;13.132;2023-02-15T15:42:31;10.35;;;2.97;;
31306;SDS011;17935;51.120;13.132;2023-02-15T15:48:02;5.20;;;2.60;;
31306;SDS011;17935;51.120;13.132;2023-02-15T15:50:32;5.82;;;2.50;;
31306;SDS011;17935;51.120;13.132;2023-02-15T15:52:59;6.68;;;2.60;;
31306;SDS011;17935;51.120;13.132;2023-02-15T15:55:27;6.18;;;2.85;;
31306;SDS011;17935;51.120;13.132;2023-02-15T15:57:56;4.88;;;3.50;;
31306;SDS011;17935;51.120;13.132;2023-02-15T16:02:52;6.10;;;3.63;;
31306;SDS011;17935;51.120;13.132;2023-02-15T16:05:18;10.65;;;3.50;;
31306;SDS011;17935;51.120;13.132;2023-02-15T16:07:44;7.85;;;3.67;;
31306;SDS011;17935;51.120;13.132;2023-02-15T16:10:20;7.27;;;3.77;;
31306;SDS011;17935;51.120;13.132;2023-02-15T16:12:46;7.15;;;3.45;;
31306;SDS011;17935;51.120;13.132;2023-02-15T16:15:13;5.72;;;3.63;;
31306;SDS011;17935;51.120;13.132;2023-02-15T16:17:40;6.97;;;3.67;;
31306;SDS011;17935;51.120;13.132;2023-02-15T16:20:12;14.85;;;5.15;;
31306;SDS011;17935;51.120;13.132;2023-02-15T16:22:43;28.50;;;17.70;;
31306;SDS011;17935;51.120;13.132;2023-02-15T16:27:42;29.00;;;16.48;;
31306;SDS011;17935;51.120;13.132;2023-02-15T16:32:43;9.57;;;5.78;;
31306;SDS011;17935;51.120;13.132;2023-02-15T16:35:13;11.00;;;5.32;;
31306;SDS011;17935;51.120;13.132;2023-02-15T16:37:39;10.75;;;5.47;;
31306;SDS011;17935;51.120;13.132;2023-02-15T16:40:05;8.38;;;3.75;;
31306;SDS011;17935;51.120;13.132;2023-02-15T16:42:32;12.52;;;5.72;;
31306;SDS011;17935;51.120;13.132;2023-02-15T16:45:01;9.68;;;5.82;;
31306;SDS011;17935;51.120;13.132;2023-02-15T16:47:29;12.20;;;7.93;;
31306;SDS011;17935;51.120;13.132;2023-02-15T16:49:57;18.52;;;10.30;;
31306;SDS011;17935;51.120;13.132;2023-02-15T16:52:25;18.27;;;11.02;;
31306;SDS011;17935;51.120;13.132;2023-02-15T16:54:59;16.83;;;9.52;;
31306;SDS011;17935;51.120;13.132;2023-02-15T16:57:27;15.18;;;8.35;;
31306;SDS011;17935;51.120;13.132;2023-02-15T16:59:55;17.63;;;8.38;;
31306;SDS011;17935;51.120;13.132;2023-02-15T17:02:24;12.98;;;7.43;;
31306;SDS011;17935;51.120;13.132;2023-02-15T17:05:07;48.13;;;7.65;;
31306;SDS011;17935;51.120;13.132;2023-02-15T17:07:34;17.98;;;9.63;;
31306;SDS011;17935;51.120;13.132;2023-02-15T17:10:16;20.92;;;9.40;;
31306;SDS011;17935;51.120;13.132;2023-02-15T17:12:53;16.98;;;8.70;;
31306;SDS011;17935;51.120;13.132;2023-02-15T17:15:26;26.33;;;13.55;;
31306;SDS011;17935;51.120;13.132;2023-02-15T17:17:52;68.50;;;31.58;;
31306;SDS011;17935;51.120;13.132;2023-02-15T17:20:18;43.15;;;19.85;;
31306;SDS011;17935;51.120;13.132;2023-02-15T17:22:44;29.80;;;14.27;;
31306;SDS011;17935;51.120;13.132;2023-02-15T17:25:18;27.88;;;10.45;;
31306;SDS011;17935;51.120;13.132;2023-02-15T17:27:49;18.92;;;9.13;;
31306;SDS011;17935;51.120;13.132;2023-02-15T17:30:17;14.00;;;8.07;;
31306;SDS011;17935;51.120;13.132;2023-02-15T17:32:59;26.00;;;7.85;;
31306;SDS011;17935;51.120;13.132;2023-02-15T17:35:27;12.98;;;5.72;;
31306;SDS011;17935;51.120;13.132;2023-02-15T17:38:16;10.40;;;5.70;;
31306;SDS011;17935;51.120;13.132;2023-02-15T17:40:42;9.63;;;6.45;;
31306;SDS011;17935;51.120;13.132;2023-02-15T17:43:08;13.70;;;9.45;;
31306;SDS011;17935;51.120;13.132;2023-02-15T17:45:35;13.23;;;8.95;;
31306;SDS011;17935;51.120;13.132;2023-02-15T17:48:04;12.65;;;8.18;;
31306;SDS011;17935;51.120;13.132;2023-02-15T17:50:31;14.13;;;8.30;;
31306;SDS011;17935;51.120;13.132;2023-02-15T17:52:57;21.77;;;8.02;;
31306;SDS011;17935;51.120;13.132;2023-02-15T17:55:23;29.60;;;6.63;;
31306;SDS011;17935;51.120;13.132;2023-02-15T17:58:08;16.30;;;6.60;;
31306;SDS011;17935;51.120;13.132;2023-02-15T18:00:36;11.45;;;5.70;;
31306;SDS011;17935;51.120;13.132;2023-02-15T18:03:22;14.43;;;7.32;;
31306;SDS011;17935;51.120;13.132;2023-02-15T18:06:08;12.15;;;7.45;;
31306;SDS011;17935;51.120;13.132;2023-02-15T18:08:53;15.73;;;9.27;;
31306;SDS011;17935;51.120;13.132;2023-02-15T23:25:30;13.63;;;7.25;;
31306;SDS011;17935;51.120;13.132;2023-02-15T23:27:56;14.35;;;7.75;;
31306;SDS011;17935;51.120;13.132;2023-02-15T23:30:22;17.77;;;9.13;;
31306;SDS011;17935;51.120;13.132;2023-02-15T23:32:55;17.65;;;8.65;;
31306;SDS011;17935;51.120;13.132;2023-02-15T23:35:21;13.13;;;7.60;;
31306;SDS011;17935;51.120;13.132;2023-02-15T23:37:47;15.55;;;8.88;;
31306;SDS011;17935;51.120;13.132;2023-02-15T23:40:14;15.50;;;8.32;;
31306;SDS011;17935;51.120;13.132;2023-02-15T23:42:59;13.23;;;7.60;;
31306;SDS011;17935;51.120;13.132;2023-02-15T23:45:25;12.88;;;7.80;;
31306;SDS011;17935;51.120;13.132;2023-02-15T23:47:51;16.45;;;8.75;;
31306;SDS011;17935;51.120;13.132;2023-02-15T23:50:36;16.45;;;8.73;;
31306;SDS011;17935;51.120;13.132;2023-02-15T23:53:02;17.63;;;9.02;;
31306;SDS011;17935;51.120;13.132;2023-02-15T23:55:35;13.40;;;8.80;;
31306;SDS011;17935;51.120;13.132;2023-02-15T23:58:02;18.33;;;8.98;;
